Time,TemperatureF,DewpointF,PressureIn,WindDirection,WindDirectionDegrees,WindSpeedMPH,WindSpeedGustMPH,Humidity,HourlyPrecipIn,Conditions,Clouds,dailyrainin,SoftwareType,DateUTC
2013-12-16 00:00:00,34.9,31.1,30.27,ENE,68,0.0,0.0,86,0.00,CLR,,0.00,WeatherDisplay:10.37,2013-12-16 06:00:00,
2013-12-16 00:05:00,34.9,31.1,30.27,ENE,68,0.0,0.0,86,0.00,CLR,,0.00,WeatherDisplay:10.37,2013-12-16 06:05:00,
2013-12-16 00:10:00,34.9,31.1,30.27,ENE,68,0.0,0.0,86,0.00,CLR,,0.00,WeatherDisplay:10.37,2013-12-16 06:10:00,
2013-12-16 00:15:00,34.9,31.4,30.28,ENE,68,0.0,0.0,87,0.00,CLR,,0.00,WeatherDisplay:10.37,2013-12-16 06:15:00,
2013-12-16 00:20:00,34.7,31.2,30.27,ENE,68,0.0,0.0,87,0.00,CLR,,0.00,WeatherDisplay:10.37,2013-12-16 06:20:00,
2013-12-16 00:25:00,34.7,31.2,30.27,ENE,68,0.0,0.0,87,0.00,CLR,,0.00,WeatherDisplay:10.37,2013-12-16 06:25:00,
2013-12-16 00:30:00,34.7,31.2,30.27,ENE,68,0.0,0.0,87,0.00,CLR,,0.00,WeatherDisplay:10.37,2013-12-16 06:30:00,
2013-12-16 00:35:00,34.5,31.0,30.27,ENE,68,0.0,0.0,87,0.00,CLR,,0.00,WeatherDisplay:10.37,2013-12-16 06:35:00,
2013-12-16 00:40:00,34.5,31.0,30.27,ENE,68,0.0,0.0,87,0.00,CLR,,0.00,WeatherDisplay:10.37,2013-12-16 06:40:00,
2013-12-16 00:45:00,34.3,30.9,30.27,ENE,68,0.0,0.0,87,0.00,CLR,,0.00,WeatherDisplay:10.37,2013-12-16 06:45:00,
2013-12-16 00:50:00,34.3,30.9,30.28,ENE,68,0.0,0.0,87,0.00,CLR,,0.00,WeatherDisplay:10.37,2013-12-16 06:50:00,
2013-12-16 00:55:00,34.3,30.9,30.28,ENE,68,0.0,0.0,87,0.00,CLR,,0.00,WeatherDisplay:10.37,2013-12-16 06:55:00,
2013-12-16 01:00:00,34.3,30.9,30.28,ENE,68,0.0,0.0,87,0.00,CLR,,0.00,WeatherDisplay:10.37,2013-12-16 07:00:00,
2013-12-16 01:05:00,34.3,30.9,30.28,ENE,68,0.0,0.0,87,0.00,CLR,,0.00,WeatherDisplay:10.37,2013-12-16 07:05:00,
2013-12-16 01:10:00,34.3,30.9,30.28,ENE,68,0.0,0.0,87,0.00,CLR,,0.00,WeatherDisplay:10.37,2013-12-16 07:10:00,
2013-12-16 01:15:00,34.3,30.9,30.27,ENE,68,0.0,0.0,87,0.00,CLR,,0.00,WeatherDisplay:10.37,2013-12-16 07:15:00,
2013-12-16 01:20:00,34.3,30.9,30.28,ENE,68,0.0,0.0,87,0.00,CLR,,0.00,WeatherDisplay:10.37,2013-12-16 07:20:00,
2013-12-16 01:25:00,34.2,30.7,30.28,ENE,68,0.0,0.0,87,0.00,CLR,,0.00,WeatherDisplay:10.37,2013-12-16 07:25:00,
2013-12-16 01:30:00,34.0,30.5,30.28,ENE,68,0.0,0.0,87,0.00,CLR,,0.00,WeatherDisplay:10.37,2013-12-16 07:30:00,
2013-12-16 01:35:00,34.0,30.5,30.27,ENE,68,0.0,0.0,87,0.00,CLR,,0.00,WeatherDisplay:10.37,2013-12-16 07:35:00,
2013-12-16 01:40:00,34.0,30.5,30.27,ENE,68,0.0,0.0,87,0.00,CLR,,0.00,WeatherDisplay:10.37,2013-12-16 07:40:00,
2013-12-16 01:45:00,33.8,30.3,30.27,ENE,68,0.0,0.0,87,0.00,CLR,,0.00,WeatherDisplay:10.37,2013-12-16 07:45:00,
2013-12-16 01:50:00,33.8,30.3,30.27,ENE,68,0.0,0.0,87,0.00,CLR,,0.00,WeatherDisplay:10.37,2013-12-16 07:50:00,
2013-12-16 01:55:00,33.8,30.3,30.27,ENE,68,0.0,0.0,87,0.00,CLR,,0.00,WeatherDisplay:10.37,2013-12-16 07:55:00,
2013-12-16 02:00:00,33.8,30.3,30.27,ENE,68,0.0,0.0,87,0.00,CLR,,0.00,WeatherDisplay:10.37,2013-12-16 08:00:00,
2013-12-16 02:05:00,33.8,30.3,30.27,ENE,68,0.0,0.0,87,0.00,CLR,,0.00,WeatherDisplay:10.37,2013-12-16 08:05:00,
2013-12-16 02:10:00,33.8,30.3,30.27,ENE,68,0.0,0.0,87,0.00,CLR,,0.00,WeatherDisplay:10.37,2013-12-16 08:10:00,
2013-12-16 02:15:00,33.6,30.2,30.28,ENE,68,0.0,0.0,87,0.00,CLR,,0.00,WeatherDisplay:10.37,2013-12-16 08:15:00,
2013-12-16 02:20:00,33.6,30.2,30.28,ENE,68,0.0,0.0,87,0.00,CLR,,0.00,WeatherDisplay:10.37,2013-12-16 08:20:00,
2013-12-16 02:25:00,33.4,30.0,30.27,ENE,68,0.0,0.0,87,0.00,CLR,,0.00,WeatherDisplay:10.37,2013-12-16 08:25:00,
2013-12-16 02:30:00,33.4,30.0,30.27,ENE,68,0.0,0.0,87,0.00,CLR,,0.00,WeatherDisplay:10.37,2013-12-16 08:30:00,
2013-12-16 02:35:00,33.4,30.0,30.27,ENE,68,0.0,0.0,87,0.00,CLR,,0.00,WeatherDisplay:10.37,2013-12-16 08:35:00,
2013-12-16 02:40:00,33.4,30.0,30.28,ENE,68,0.0,0.0,87,0.00,CLR,,0.00,WeatherDisplay:10.37,2013-12-16 08:40:00,
2013-12-16 02:45:00,33.3,29.8,30.28,ENE,68,0.0,0.0,87,0.00,CLR,,0.00,WeatherDisplay:10.37,2013-12-16 08:45:00,
2013-12-16 02:50:00,33.4,30.0,30.28,ENE,68,0.0,0.0,87,0.00,CLR,,0.00,WeatherDisplay:10.37,2013-12-16 08:50:00,
2013-12-16 02:55:00,33.3,29.8,30.28,ENE,68,0.0,0.0,87,0.00,CLR,,0.00,WeatherDisplay:10.37,2013-12-16 08:55:00,
2013-12-16 03:00:00,33.3,29.8,30.27,ENE,68,0.0,0.0,87,0.00,CLR,,0.00,WeatherDisplay:10.37,2013-12-16 09:00:00,
2013-12-16 03:05:00,33.3,29.8,30.27,ENE,68,0.0,0.0,87,0.00,CLR,,0.00,WeatherDisplay:10.37,2013-12-16 09:05:00,
2013-12-16 03:10:00,33.3,29.8,30.27,ENE,68,0.0,0.0,87,0.00,CLR,,0.00,WeatherDisplay:10.37,2013-12-16 09:10:00,
2013-12-16 03:15:00,33.1,29.6,30.27,ENE,68,0.0,0.0,87,0.00,CLR,,0.00,WeatherDisplay:10.37,2013-12-16 09:15:00,
2013-12-16 03:20:00,33.1,29.9,30.27,ENE,68,0.0,0.0,88,0.00,CLR,,0.00,WeatherDisplay:10.37,2013-12-16 09:20:00,
2013-12-16 03:25:00,33.1,29.9,30.27,ENE,68,0.0,0.0,88,0.00,CLR,,0.00,WeatherDisplay:10.37,2013-12-16 09:25:00,
2013-12-16 03:30:00,33.1,29.9,30.27,ENE,68,0.0,0.0,88,0.00,CLR,,0.00,WeatherDisplay:10.37,2013-12-16 09:30:00,
2013-12-16 03:35:00,32.9,29.7,30.28,ENE,68,0.0,0.0,88,0.00,CLR,,0.00,WeatherDisplay:10.37,2013-12-16 09:35:00,
2013-12-16 03:40:00,32.9,29.7,30.28,ENE,68,0.0,0.0,88,0.00,CLR,,0.00,WeatherDisplay:10.37,2013-12-16 09:40:00,
2013-12-16 03:45:00,32.7,29.6,30.28,ENE,68,0.0,0.0,88,0.00,CLR,,0.00,WeatherDisplay:10.37,2013-12-16 09:45:00,
2013-12-16 03:50:00,32.7,29.6,30.28,ENE,68,0.0,0.0,88,0.00,CLR,,0.00,WeatherDisplay:10.37,2013-12-16 09:50:00,
2013-12-16 03:55:00,32.7,29.6,30.28,ENE,68,0.0,0.0,88,0.00,CLR,,0.00,WeatherDisplay:10.37,2013-12-16 09:55:00,
2013-12-16 04:00:00,32.7,29.6,30.28,ENE,68,0.0,0.0,88,0.00,CLR,,0.00,WeatherDisplay:10.37,2013-12-16 10:00:00,
2013-12-16 04:05:00,32.7,29.6,30.28,ENE,68,0.0,0.0,88,0.00,CLR,,0.00,WeatherDisplay:10.37,2013-12-16 10:05:00,
2013-12-16 04:10:00,32.7,29.6,30.28,ENE,68,0.0,0.0,88,0.00,CLR,,0.00,WeatherDisplay:10.37,2013-12-16 10:10:00,
2013-12-16 04:15:00,32.7,29.6,30.28,ENE,68,0.0,0.0,88,0.00,CLR,,0.00,WeatherDisplay:10.37,2013-12-16 10:15:00,
2013-12-16 04:20:00,32.7,29.6,30.28,ENE,68,0.0,0.0,88,0.00,CLR,,0.00,WeatherDisplay:10.37,2013-12-16 10:20:00,
2013-12-16 04:25:00,32.7,29.6,30.27,ENE,68,0.0,0.0,88,0.00,CLR,,0.00,WeatherDisplay:10.37,2013-12-16 10:25:00,
2013-12-16 04:30:00,32.5,29.4,30.27,ENE,68,0.0,0.0,88,0.00,CLR,,0.00,WeatherDisplay:10.37,2013-12-16 10:30:00,
2013-12-16 04:35:00,32.4,29.2,30.28,ENE,68,0.0,0.0,88,0.00,CLR,,0.00,WeatherDisplay:10.37,2013-12-16 10:35:00,
2013-12-16 04:40:00,32.2,29.0,30.27,ENE,68,0.0,0.0,88,0.00,CLR,,0.00,WeatherDisplay:10.37,2013-12-16 10:40:00,
2013-12-16 04:45:00,32.2,29.0,30.27,ENE,68,0.0,0.0,88,0.00,CLR,,0.00,WeatherDisplay:10.37,2013-12-16 10:45:00,
2013-12-16 04:50:00,32.2,29.0,30.27,ENE,68,0.0,0.0,88,0.00,CLR,,0.00,WeatherDisplay:10.37,2013-12-16 10:50:00,
2013-12-16 04:55:00,32.2,29.0,30.27,ENE,68,0.0,0.0,88,0.00,CLR,,0.00,WeatherDisplay:10.37,2013-12-16 10:55:00,
2013-12-16 05:00:00,32.2,29.0,30.27,ENE,68,0.0,0.0,88,0.00,CLR,,0.00,WeatherDisplay:10.37,2013-12-16 11:00:00,
2013-12-16 05:05:00,32.2,29.0,30.27,ENE,68,0.0,0.0,88,0.00,CLR,,0.00,WeatherDisplay:10.37,2013-12-16 11:05:00,
2013-12-16 05:10:00,32.2,29.0,30.27,ENE,68,0.0,0.0,88,0.00,CLR,,0.00,WeatherDisplay:10.37,2013-12-16 11:10:00,
2013-12-16 05:15:00,32.2,29.3,30.28,ENE,68,0.0,0.0,89,0.00,CLR,,0.00,WeatherDisplay:10.37,2013-12-16 11:15:00,
2013-12-16 05:20:00,32.2,29.3,30.28,ENE,68,0.0,0.0,89,0.00,CLR,,0.00,WeatherDisplay:10.37,2013-12-16 11:20:00,
2013-12-16 05:25:00,32.2,29.3,30.28,ENE,68,0.0,0.0,89,0.00,CLR,,0.00,WeatherDisplay:10.37,2013-12-16 11:25:00,
2013-12-16 05:30:00,32.4,29.5,30.28,ENE,68,0.0,0.0,89,0.00,CLR,,0.00,WeatherDisplay:10.37,2013-12-16 11:30:00,
2013-12-16 05:35:00,32.4,29.5,30.29,ENE,68,0.0,0.0,89,0.00,CLR,,0.00,WeatherDisplay:10.37,2013-12-16 11:35:00,
2013-12-16 05:40:00,32.4,29.5,30.29,ENE,68,0.0,0.0,89,0.00,CLR,,0.00,WeatherDisplay:10.37,2013-12-16 11:40:00,
2013-12-16 05:45:00,32.4,29.5,30.29,ENE,68,0.0,0.0,89,0.00,CLR,,0.00,WeatherDisplay:10.37,2013-12-16 11:45:00,
2013-12-16 05:50:00,32.4,29.5,30.29,ENE,68,0.0,0.0,89,0.00,CLR,,0.00,WeatherDisplay:10.37,2013-12-16 11:50:00,
2013-12-16 05:55:00,32.5,29.7,30.29,ENE,68,0.0,0.0,89,0.00,CLR,,0.00,WeatherDisplay:10.37,2013-12-16 11:55:00,
2013-12-16 06:00:00,32.5,29.7,30.29,ENE,68,0.0,0.0,89,0.00,CLR,,0.00,WeatherDisplay:10.37,2013-12-16 12:00:00,
2013-12-16 06:05:00,32.5,29.7,30.29,ENE,68,0.0,0.0,89,0.00,CLR,,0.00,WeatherDisplay:10.37,2013-12-16 12:05:00,
2013-12-16 06:10:00,32.5,29.7,30.29,ENE,68,0.0,0.0,89,0.00,CLR,,0.00,WeatherDisplay:10.37,2013-12-16 12:10:00,
2013-12-16 06:15:00,32.2,29.3,30.28,ENE,68,0.0,0.0,89,0.00,CLR,,0.00,WeatherDisplay:10.37,2013-12-16 12:15:00,
2013-12-16 06:20:00,32.2,29.3,30.29,ENE,68,0.0,0.0,89,0.00,CLR,,0.00,WeatherDisplay:10.37,2013-12-16 12:20:00,
2013-12-16 06:25:00,32.2,29.3,30.28,ENE,68,0.0,0.0,89,0.00,CLR,,0.00,WeatherDisplay:10.37,2013-12-16 12:25:00,
2013-12-16 06:30:00,32.2,29.3,30.29,ENE,68,0.0,0.0,89,0.00,CLR,,0.00,WeatherDisplay:10.37,2013-12-16 12:30:00,
2013-12-16 06:35:00,32.2,29.3,30.28,ENE,68,0.0,0.0,89,0.00,CLR,,0.00,WeatherDisplay:10.37,2013-12-16 12:35:00,
2013-12-16 06:40:00,32.2,29.3,30.29,ENE,68,0.0,0.0,89,0.00,CLR,,0.00,WeatherDisplay:10.37,2013-12-16 12:40:00,
2013-12-16 06:45:00,32.0,29.1,30.29,ENE,68,0.0,0.0,89,0.00,CLR,,0.00,WeatherDisplay:10.37,2013-12-16 12:45:00,
2013-12-16 06:50:00,31.8,28.7,30.29,ENE,68,0.0,0.0,88,0.00,CLR,,0.00,WeatherDisplay:10.37,2013-12-16 12:50:00,
2013-12-16 06:55:00,31.8,28.7,30.30,ENE,68,0.0,0.0,88,0.00,CLR,,0.00,WeatherDisplay:10.37,2013-12-16 12:55:00,
2013-12-16 07:00:00,31.8,28.9,30.30,ENE,68,0.0,0.0,89,0.00,CLR,,0.00,WeatherDisplay:10.37,2013-12-16 13:00:00,
2013-12-16 07:05:00,32.2,29.3,30.30,ENE,68,0.0,0.0,89,0.00,CLR,,0.00,WeatherDisplay:10.37,2013-12-16 13:05:00,
2013-12-16 07:10:00,32.4,29.5,30.30,ENE,68,0.0,0.0,89,0.00,CLR,,0.00,WeatherDisplay:10.37,2013-12-16 13:10:00,
2013-12-16 07:15:00,32.5,29.7,30.30,ENE,68,0.0,0.0,89,0.00,CLR,,0.00,WeatherDisplay:10.37,2013-12-16 13:15:00,
2013-12-16 07:20:00,33.1,30.2,30.30,ENE,68,0.0,0.0,89,0.00,CLR,,0.00,WeatherDisplay:10.37,2013-12-16 13:20:00,
2013-12-16 07:25:00,33.6,30.7,30.31,ENE,68,0.0,0.0,89,0.00,CLR,,0.00,WeatherDisplay:10.37,2013-12-16 13:25:00,
2013-12-16 07:30:00,34.3,31.4,30.31,ENE,68,0.0,0.0,89,0.00,CLR,,0.00,WeatherDisplay:10.37,2013-12-16 13:30:00,
2013-12-16 07:35:00,35.2,32.3,30.31,ENE,68,0.0,0.0,89,0.00,CLR,,0.00,WeatherDisplay:10.37,2013-12-16 13:35:00,
2013-12-16 07:40:00,35.8,32.9,30.31,ENE,68,0.0,0.0,89,0.00,CLR,,0.00,WeatherDisplay:10.37,2013-12-16 13:40:00,
2013-12-16 07:45:00,36.3,33.1,30.31,ENE,68,0.0,0.0,88,0.00,CLR,,0.00,WeatherDisplay:10.37,2013-12-16 13:45:00,
2013-12-16 07:50:00,37.0,33.8,30.31,ENE,68,0.0,0.0,88,0.00,CLR,,0.00,WeatherDisplay:10.37,2013-12-16 13:50:00,
2013-12-16 07:55:00,37.2,34.0,30.31,ENE,68,0.0,0.0,88,0.00,CLR,,0.00,WeatherDisplay:10.37,2013-12-16 13:55:00,
2013-12-16 08:00:00,37.6,34.1,30.31,ENE,68,0.0,0.0,87,0.00,CLR,,0.00,WeatherDisplay:10.37,2013-12-16 14:00:00,
2013-12-16 08:05:00,38.1,34.6,30.31,ENE,68,0.0,0.0,87,0.00,CLR,,0.00,WeatherDisplay:10.37,2013-12-16 14:05:00,
2013-12-16 08:10:00,38.3,34.5,30.31,ENE,68,0.0,0.0,86,0.00,CLR,,0.00,WeatherDisplay:10.37,2013-12-16 14:10:00,
2013-12-16 08:15:00,39.0,35.2,30.31,ENE,68,0.0,0.0,86,0.00,CLR,,0.00,WeatherDisplay:10.37,2013-12-16 14:15:00,
2013-12-16 08:20:00,39.9,35.8,30.32,ENE,68,0.0,0.0,85,0.00,CLR,,0.00,WeatherDisplay:10.37,2013-12-16 14:20:00,
2013-12-16 08:25:00,40.6,36.5,30.32,ENE,68,0.0,0.0,85,0.00,CLR,,0.00,WeatherDisplay:10.37,2013-12-16 14:25:00,
2013-12-16 08:30:00,41.4,37.2,30.32,East,90,0.0,0.0,85,0.00,CLR,,0.00,WeatherDisplay:10.37,2013-12-16 14:30:00,
2013-12-16 08:35:00,41.7,37.2,30.32,ENE,68,0.0,0.0,84,0.00,CLR,,0.00,WeatherDisplay:10.37,2013-12-16 14:35:00,
2013-12-16 08:40:00,42.1,37.6,30.32,ENE,68,0.0,0.0,84,0.00,CLR,,0.00,WeatherDisplay:10.37,2013-12-16 14:40:00,
2013-12-16 08:45:00,42.6,37.8,30.33,ENE,68,0.0,0.0,83,0.00,CLR,,0.00,WeatherDisplay:10.37,2013-12-16 14:45:00,
2013-12-16 08:50:00,43.2,38.0,30.33,NNE,22,0.0,0.0,82,0.00,CLR,,0.00,WeatherDisplay:10.37,2013-12-16 14:50:00,
2013-12-16 08:55:00,43.5,38.1,30.33,ENE,68,0.0,0.0,81,0.00,CLR,,0.00,WeatherDisplay:10.37,2013-12-16 14:55:00,
2013-12-16 09:00:00,44.1,38.3,30.33,ENE,68,0.0,0.0,80,0.00,CLR,,0.00,WeatherDisplay:10.37,2013-12-16 15:00:00,
2013-12-16 09:05:00,44.4,38.3,30.33,ENE,68,0.0,0.0,79,0.00,CLR,,0.00,WeatherDisplay:10.37,2013-12-16 15:05:00,
2013-12-16 09:10:00,44.4,38.3,30.33,ENE,68,0.0,0.0,79,0.00,CLR,,0.00,WeatherDisplay:10.37,2013-12-16 15:10:00,
2013-12-16 09:15:00,44.2,38.1,30.33,NNE,22,0.0,0.0,79,0.00,CLR,,0.00,WeatherDisplay:10.37,2013-12-16 15:15:00,
2013-12-16 09:20:00,44.8,38.3,30.33,ENE,68,0.0,0.0,78,0.00,CLR,,0.00,WeatherDisplay:10.37,2013-12-16 15:20:00,
2013-12-16 09:25:00,44.8,38.0,30.33,ENE,68,0.0,0.0,77,0.00,CLR,,0.00,WeatherDisplay:10.37,2013-12-16 15:25:00,
2013-12-16 09:30:00,44.8,38.0,30.34,ENE,68,0.0,0.0,77,0.00,CLR,,0.00,WeatherDisplay:10.37,2013-12-16 15:30:00,
2013-12-16 09:35:00,45.0,37.8,30.34,ENE,68,0.0,0.0,76,0.00,CLR,,0.00,WeatherDisplay:10.37,2013-12-16 15:35:00,
2013-12-16 09:40:00,45.0,38.2,30.34,ENE,68,0.0,0.0,77,0.00,CLR,,0.00,WeatherDisplay:10.37,2013-12-16 15:40:00,
2013-12-16 09:45:00,45.5,38.7,30.34,WSW,248,0.0,0.0,77,0.00,CLR,,0.00,WeatherDisplay:10.37,2013-12-16 15:45:00,
2013-12-16 09:50:00,46.2,39.1,30.34,WSW,248,0.0,0.0,76,0.00,CLR,,0.00,WeatherDisplay:10.37,2013-12-16 15:50:00,
2013-12-16 09:55:00,46.6,39.4,30.34,ENE,68,0.0,0.0,76,0.00,CLR,,0.00,WeatherDisplay:10.37,2013-12-16 15:55:00,
2013-12-16 10:00:00,46.8,38.9,30.34,ENE,68,0.0,0.0,74,0.00,CLR,,0.00,WeatherDisplay:10.37,2013-12-16 16:00:00,
2013-12-16 10:05:00,46.9,39.1,30.34,ENE,68,0.0,0.0,74,0.00,CLR,,0.00,WeatherDisplay:10.37,2013-12-16 16:05:00,
2013-12-16 10:10:00,47.1,39.3,30.34,NE,45,0.0,0.0,74,0.00,CLR,,0.00,WeatherDisplay:10.37,2013-12-16 16:10:00,
2013-12-16 10:15:00,47.3,39.4,30.33,West,270,0.0,0.0,74,0.00,CLR,,0.00,WeatherDisplay:10.37,2013-12-16 16:15:00,
2013-12-16 10:20:00,47.7,39.8,30.33,West,270,0.0,0.0,74,0.00,CLR,,0.00,WeatherDisplay:10.37,2013-12-16 16:20:00,
2013-12-16 10:25:00,48.0,39.8,30.33,NNW,338,0.0,0.0,73,0.00,CLR,,0.00,WeatherDisplay:10.37,2013-12-16 16:25:00,
2013-12-16 10:30:00,48.0,39.4,30.33,ENE,68,0.0,0.0,72,0.00,CLR,,0.00,WeatherDisplay:10.37,2013-12-16 16:30:00,
2013-12-16 10:35:00,48.0,39.1,30.32,NE,45,0.0,0.0,71,0.00,CLR,,0.00,WeatherDisplay:10.37,2013-12-16 16:35:00,
2013-12-16 10:40:00,48.2,39.2,30.33,ENE,68,0.0,0.0,71,0.00,CLR,,0.00,WeatherDisplay:10.37,2013-12-16 16:40:00,
2013-12-16 10:45:00,48.4,39.8,30.32,ENE,68,0.0,0.0,72,0.00,CLR,,0.00,WeatherDisplay:10.37,2013-12-16 16:45:00,
2013-12-16 10:50:00,48.6,39.6,30.33,West,270,0.0,0.0,71,0.00,CLR,,0.00,WeatherDisplay:10.37,2013-12-16 16:50:00,
2013-12-16 10:55:00,48.9,39.9,30.32,NE,45,0.0,0.0,71,0.00,CLR,,0.00,WeatherDisplay:10.37,2013-12-16 16:55:00,
2013-12-16 11:00:00,49.1,40.1,30.32,West,270,0.0,0.0,71,0.00,CLR,,0.00,WeatherDisplay:10.37,2013-12-16 17:00:00,
2013-12-16 11:05:00,49.5,40.4,30.32,North,0,0.0,0.0,71,0.00,CLR,,0.00,WeatherDisplay:10.37,2013-12-16 17:05:00,
2013-12-16 11:10:00,49.6,40.3,30.32,ENE,68,0.0,0.0,70,0.00,CLR,,0.00,WeatherDisplay:10.37,2013-12-16 17:10:00,
2013-12-16 11:15:00,49.8,40.8,30.31,West,270,0.0,0.0,71,0.00,CLR,,0.00,WeatherDisplay:10.37,2013-12-16 17:15:00,
2013-12-16 11:20:00,50.2,40.8,30.31,ENE,68,0.0,0.0,70,0.00,CLR,,0.00,WeatherDisplay:10.37,2013-12-16 17:20:00,
2013-12-16 11:25:00,50.4,40.6,30.31,NE,45,0.0,0.0,69,0.00,CLR,,0.00,WeatherDisplay:10.37,2013-12-16 17:25:00,
2013-12-16 11:30:00,50.5,40.7,30.31,NE,45,0.0,0.0,69,0.00,CLR,,0.00,WeatherDisplay:10.37,2013-12-16 17:30:00,
2013-12-16 11:35:00,50.7,40.9,30.30,NE,45,0.0,0.0,69,0.00,CLR,,0.00,WeatherDisplay:10.37,2013-12-16 17:35:00,
2013-12-16 11:40:00,50.9,41.1,30.30,NNE,22,0.0,0.0,69,0.00,CLR,,0.00,WeatherDisplay:10.37,2013-12-16 17:40:00,
2013-12-16 11:45:00,51.3,41.1,30.30,West,270,0.0,0.0,68,0.00,CLR,,0.00,WeatherDisplay:10.37,2013-12-16 17:45:00,
2013-12-16 11:50:00,51.4,41.2,30.30,NE,45,0.0,0.0,68,0.00,CLR,,0.00,WeatherDisplay:10.37,2013-12-16 17:50:00,
2013-12-16 11:56:00,51.6,40.6,30.29,West,270,0.0,0.0,66,0.00,CLR,,0.00,WeatherDisplay:10.37,2013-12-16 17:56:00,
2013-12-16 12:01:00,51.8,40.8,30.29,NE,45,0.0,0.0,66,0.00,CLR,,0.00,WeatherDisplay:10.37,2013-12-16 18:01:00,
2013-12-16 12:06:00,52.0,41.0,30.28,NE,45,0.0,0.0,66,0.00,CLR,,0.00,WeatherDisplay:10.37,2013-12-16 18:06:00,
2013-12-16 12:11:00,52.3,40.9,30.28,ENE,68,0.0,0.0,65,0.00,CLR,,0.00,WeatherDisplay:10.37,2013-12-16 18:11:00,
2013-12-16 12:16:00,52.5,41.1,30.28,ENE,68,0.0,0.0,65,0.00,CLR,,0.00,WeatherDisplay:10.37,2013-12-16 18:16:00,
2013-12-16 12:21:00,52.7,40.9,30.27,WSW,248,0.0,0.0,64,0.00,CLR,,0.00,WeatherDisplay:10.37,2013-12-16 18:21:00,
2013-12-16 12:26:00,52.9,41.0,30.27,West,270,0.0,0.0,64,0.00,CLR,,0.00,WeatherDisplay:10.37,2013-12-16 18:26:00,
2013-12-16 12:31:00,53.1,41.2,30.27,NW,315,0.0,0.0,64,0.00,CLR,,0.00,WeatherDisplay:10.37,2013-12-16 18:31:00,
2013-12-16 12:36:00,53.2,41.0,30.27,ENE,68,0.0,0.0,63,0.00,CLR,,0.00,WeatherDisplay:10.37,2013-12-16 18:36:00,
2013-12-16 12:41:00,53.4,41.5,30.27,WNW,292,0.0,0.0,64,0.00,CLR,,0.00,WeatherDisplay:10.37,2013-12-16 18:41:00,
2013-12-16 12:46:00,53.6,41.3,30.27,NW,315,0.0,0.0,63,0.00,CLR,,0.00,WeatherDisplay:10.37,2013-12-16 18:46:00,
2013-12-16 12:51:00,53.8,41.5,30.27,West,270,0.0,0.0,63,0.00,CLR,,0.00,WeatherDisplay:10.37,2013-12-16 18:51:00,
2013-12-16 12:56:00,54.0,41.6,30.26,West,270,0.0,0.0,63,0.00,CLR,,0.00,WeatherDisplay:10.37,2013-12-16 18:56:00,
2013-12-16 13:01:00,54.1,41.8,30.26,West,270,0.0,0.0,63,0.00,CLR,,0.00,WeatherDisplay:10.37,2013-12-16 19:01:00,
2013-12-16 13:06:00,54.3,41.6,30.26,West,270,0.0,0.0,62,0.00,CLR,,0.00,WeatherDisplay:10.37,2013-12-16 19:06:00,
2013-12-16 13:11:00,54.5,41.3,30.26,NNW,338,0.0,0.0,61,0.00,CLR,,0.00,WeatherDisplay:10.37,2013-12-16 19:11:00,
2013-12-16 13:16:00,54.5,41.3,30.25,NNW,338,0.0,0.0,61,0.00,CLR,,0.00,WeatherDisplay:10.37,2013-12-16 19:16:00,
2013-12-16 13:21:00,54.7,41.9,30.25,West,270,0.0,0.0,62,0.00,CLR,,0.00,WeatherDisplay:10.37,2013-12-16 19:21:00,
2013-12-16 13:26:00,55.0,42.3,30.25,NW,315,0.0,0.0,62,0.00,CLR,,0.00,WeatherDisplay:10.37,2013-12-16 19:26:00,
2013-12-16 13:31:00,55.0,42.3,30.25,WNW,292,0.0,0.0,62,0.00,CLR,,0.00,WeatherDisplay:10.37,2013-12-16 19:31:00,
2013-12-16 13:36:00,55.0,41.8,30.25,NNE,22,0.0,0.0,61,0.00,CLR,,0.00,WeatherDisplay:10.37,2013-12-16 19:36:00,
2013-12-16 13:41:00,55.2,42.0,30.25,ENE,68,0.0,0.0,61,0.00,CLR,,0.00,WeatherDisplay:10.37,2013-12-16 19:41:00,
2013-12-16 13:46:00,55.2,41.6,30.25,NE,45,0.0,0.0,60,0.00,CLR,,0.00,WeatherDisplay:10.37,2013-12-16 19:46:00,
2013-12-16 13:51:00,55.2,42.0,30.25,NW,315,0.0,0.0,61,0.00,CLR,,0.00,WeatherDisplay:10.37,2013-12-16 19:51:00,
2013-12-16 13:56:00,55.2,42.0,30.25,West,270,0.0,0.0,61,0.00,CLR,,0.00,WeatherDisplay:10.37,2013-12-16 19:56:00,
2013-12-16 14:01:00,55.2,42.0,30.25,West,270,0.0,0.0,61,0.00,CLR,,0.00,WeatherDisplay:10.37,2013-12-16 20:01:00,
2013-12-16 14:06:00,55.4,42.2,30.25,West,270,0.0,0.0,61,0.00,CLR,,0.00,WeatherDisplay:10.37,2013-12-16 20:06:00,
2013-12-16 14:11:00,55.6,42.3,30.25,North,0,0.0,0.0,61,0.00,CLR,,0.00,WeatherDisplay:10.37,2013-12-16 20:11:00,
2013-12-16 14:16:00,55.6,42.8,30.25,NNW,338,0.0,0.0,62,0.00,CLR,,0.00,WeatherDisplay:10.37,2013-12-16 20:16:00,
2013-12-16 14:21:00,55.8,42.5,30.25,NNW,338,0.0,0.0,61,0.00,CLR,,0.00,WeatherDisplay:10.37,2013-12-16 20:21:00,
2013-12-16 14:26:00,55.9,42.7,30.25,NE,45,0.0,0.0,61,0.00,CLR,,0.00,WeatherDisplay:10.37,2013-12-16 20:26:00,
2013-12-16 14:31:00,55.9,42.7,30.25,WSW,248,0.0,0.0,61,0.00,CLR,,0.00,WeatherDisplay:10.37,2013-12-16 20:31:00,
2013-12-16 14:36:00,55.9,43.1,30.25,West,270,0.0,0.0,62,0.00,CLR,,0.00,WeatherDisplay:10.37,2013-12-16 20:36:00,
2013-12-16 14:41:00,55.9,43.1,30.25,WNW,292,0.0,0.0,62,0.00,CLR,,0.00,WeatherDisplay:10.37,2013-12-16 20:41:00,
2013-12-16 14:46:00,55.9,43.1,30.25,WNW,292,0.0,0.0,62,0.00,CLR,,0.00,WeatherDisplay:10.37,2013-12-16 20:46:00,
2013-12-16 14:51:00,55.9,43.1,30.25,WNW,292,0.0,0.0,62,0.00,CLR,,0.00,WeatherDisplay:10.37,2013-12-16 20:51:00,
2013-12-16 14:56:00,55.9,43.1,30.25,West,270,0.0,0.0,62,0.00,CLR,,0.00,WeatherDisplay:10.37,2013-12-16 20:56:00,
2013-12-16 15:01:00,55.9,43.5,30.25,West,270,0.0,0.0,63,0.00,CLR,,0.00,WeatherDisplay:10.37,2013-12-16 21:01:00,
2013-12-16 15:06:00,55.8,43.3,30.24,NW,315,0.0,0.0,63,0.00,CLR,,0.00,WeatherDisplay:10.37,2013-12-16 21:06:00,
2013-12-16 15:11:00,55.8,43.3,30.24,NW,315,0.0,0.0,63,0.00,CLR,,0.00,WeatherDisplay:10.37,2013-12-16 21:11:00,
2013-12-16 15:17:00,55.6,43.2,30.24,WNW,292,0.0,0.0,63,0.00,CLR,,0.00,WeatherDisplay:10.37,2013-12-16 21:17:00,
2013-12-16 15:21:00,55.6,43.6,30.24,WNW,292,0.0,0.0,64,0.00,CLR,,0.00,WeatherDisplay:10.37,2013-12-16 21:21:00,
2013-12-16 15:27:00,55.6,43.6,30.24,WSW,248,0.0,0.0,64,0.00,CLR,,0.00,WeatherDisplay:10.37,2013-12-16 21:27:00,
2013-12-16 15:32:00,55.4,43.4,30.24,WNW,292,0.0,0.0,64,0.00,CLR,,0.00,WeatherDisplay:10.37,2013-12-16 21:32:00,
2013-12-16 15:37:00,55.4,43.4,30.24,WNW,292,0.0,0.0,64,0.00,CLR,,0.00,WeatherDisplay:10.37,2013-12-16 21:37:00,
2013-12-16 15:42:00,55.2,43.2,30.24,WNW,292,0.0,0.0,64,0.00,CLR,,0.00,WeatherDisplay:10.37,2013-12-16 21:42:00,
2013-12-16 15:47:00,55.2,43.7,30.24,WNW,292,0.0,0.0,65,0.00,CLR,,0.00,WeatherDisplay:10.37,2013-12-16 21:47:00,
2013-12-16 15:52:00,55.0,43.5,30.24,WNW,292,0.0,0.0,65,0.00,CLR,,0.00,WeatherDisplay:10.37,2013-12-16 21:52:00,
2013-12-16 15:57:00,54.9,43.3,30.24,WNW,292,0.0,0.0,65,0.00,CLR,,0.00,WeatherDisplay:10.37,2013-12-16 21:57:00,
2013-12-16 16:03:00,54.7,43.1,30.24,WNW,292,0.0,0.0,65,0.00,CLR,,0.00,WeatherDisplay:10.37,2013-12-16 22:03:00,
2013-12-16 16:08:00,54.5,43.4,30.24,WNW,292,0.0,0.0,66,0.00,CLR,,0.00,WeatherDisplay:10.37,2013-12-16 22:08:00,
2013-12-16 16:13:00,54.3,43.2,30.25,WNW,292,0.0,0.0,66,0.00,CLR,,0.00,WeatherDisplay:10.37,2013-12-16 22:13:00,
2013-12-16 16:18:00,54.1,43.0,30.25,WNW,292,0.0,0.0,66,0.00,CLR,,0.00,WeatherDisplay:10.37,2013-12-16 22:18:00,
2013-12-16 16:23:00,53.8,43.1,30.24,WNW,292,0.0,0.0,67,0.00,CLR,,0.00,WeatherDisplay:10.37,2013-12-16 22:23:00,
2013-12-16 16:28:00,53.4,43.1,30.25,WNW,292,0.0,0.0,68,0.00,CLR,,0.00,WeatherDisplay:10.37,2013-12-16 22:28:00,
2013-12-16 16:33:00,53.4,43.1,30.25,WNW,292,0.0,0.0,68,0.00,CLR,,0.00,WeatherDisplay:10.37,2013-12-16 22:33:00,
2013-12-16 16:38:00,52.9,42.6,30.25,WNW,292,0.0,0.0,68,0.00,CLR,,0.00,WeatherDisplay:10.37,2013-12-16 22:38:00,
2013-12-16 16:43:00,52.7,42.4,30.25,WNW,292,0.0,0.0,68,0.00,CLR,,0.00,WeatherDisplay:10.37,2013-12-16 22:43:00,
2013-12-16 16:48:00,52.3,42.5,30.25,WNW,292,0.0,0.0,69,0.00,CLR,,0.00,WeatherDisplay:10.37,2013-12-16 22:48:00,
2013-12-16 16:53:00,52.2,42.3,30.25,WNW,292,0.0,0.0,69,0.00,CLR,,0.00,WeatherDisplay:10.37,2013-12-16 22:53:00,
2013-12-16 16:58:00,51.6,41.8,30.25,WNW,292,0.0,0.0,69,0.00,CLR,,0.00,WeatherDisplay:10.37,2013-12-16 22:58:00,
2013-12-16 17:03:00,51.4,42.0,30.25,WNW,292,0.0,0.0,70,0.00,CLR,,0.00,WeatherDisplay:10.37,2013-12-16 23:03:00,
2013-12-16 17:08:00,51.1,41.6,30.25,WNW,292,0.0,0.0,70,0.00,CLR,,0.00,WeatherDisplay:10.37,2013-12-16 23:08:00,
2013-12-16 17:13:00,50.7,41.7,30.25,WNW,292,0.0,0.0,71,0.00,CLR,,0.00,WeatherDisplay:10.37,2013-12-16 23:13:00,
2013-12-16 17:18:00,50.4,41.7,30.25,WNW,292,0.0,0.0,72,0.00,CLR,,0.00,WeatherDisplay:10.37,2013-12-16 23:18:00,
2013-12-16 17:23:00,49.8,41.2,30.25,WNW,292,0.0,0.0,72,0.00,CLR,,0.00,WeatherDisplay:10.37,2013-12-16 23:23:00,
2013-12-16 17:28:00,49.6,41.0,30.25,WNW,292,0.0,0.0,72,0.00,CLR,,0.00,WeatherDisplay:10.37,2013-12-16 23:28:00,
2013-12-16 17:33:00,48.9,40.6,30.25,WNW,292,0.0,0.0,73,0.00,CLR,,0.00,WeatherDisplay:10.37,2013-12-16 23:33:00,
2013-12-16 17:38:00,48.7,40.5,30.25,WNW,292,0.0,0.0,73,0.00,CLR,,0.00,WeatherDisplay:10.37,2013-12-16 23:38:00,
2013-12-16 17:43:00,48.4,40.5,30.26,WNW,292,0.0,0.0,74,0.00,CLR,,0.00,WeatherDisplay:10.37,2013-12-16 23:43:00,
2013-12-16 17:48:00,47.8,40.0,30.25,WNW,292,0.0,0.0,74,0.00,CLR,,0.00,WeatherDisplay:10.37,2013-12-16 23:48:00,
2013-12-16 17:53:00,47.7,40.1,30.25,WNW,292,0.0,0.0,75,0.00,CLR,,0.00,WeatherDisplay:10.37,2013-12-16 23:53:00,
2013-12-16 17:58:00,47.3,39.8,30.25,WNW,292,0.0,0.0,75,0.00,CLR,,0.00,WeatherDisplay:10.37,2013-12-16 23:58:00,
2013-12-16 18:03:00,46.9,39.8,30.25,WNW,292,0.0,0.0,76,0.00,CLR,,0.00,WeatherDisplay:10.37,2013-12-17 00:03:00,
2013-12-16 18:08:00,46.6,39.8,30.25,WNW,292,0.0,0.0,77,0.00,CLR,,0.00,WeatherDisplay:10.37,2013-12-17 00:08:00,
2013-12-16 18:13:00,46.2,39.4,30.25,WNW,292,0.0,0.0,77,0.00,CLR,,0.00,WeatherDisplay:10.37,2013-12-17 00:13:00,
2013-12-16 18:18:00,46.0,39.6,30.25,WNW,292,0.0,0.0,78,0.00,CLR,,0.00,WeatherDisplay:10.37,2013-12-17 00:18:00,
2013-12-16 18:23:00,45.7,39.2,30.25,WNW,292,0.0,0.0,78,0.00,CLR,,0.00,WeatherDisplay:10.37,2013-12-17 00:23:00,
2013-12-16 18:28:00,45.5,39.4,30.25,WNW,292,0.0,0.0,79,0.00,CLR,,0.00,WeatherDisplay:10.37,2013-12-17 00:28:00,
2013-12-16 18:33:00,45.1,39.0,30.25,WNW,292,0.0,0.0,79,0.00,CLR,,0.00,WeatherDisplay:10.37,2013-12-17 00:33:00,
2013-12-16 18:38:00,45.0,38.8,30.25,WNW,292,0.0,0.0,79,0.00,CLR,,0.00,WeatherDisplay:10.37,2013-12-17 00:38:00,
2013-12-16 18:43:00,44.6,38.5,30.25,WNW,292,0.0,0.0,79,0.00,CLR,,0.00,WeatherDisplay:10.37,2013-12-17 00:43:00,
2013-12-16 18:48:00,44.4,38.3,30.25,WNW,292,0.0,0.0,79,0.00,CLR,,0.00,WeatherDisplay:10.37,2013-12-17 00:48:00,
2013-12-16 18:53:00,44.4,38.6,30.26,WNW,292,0.0,0.0,80,0.00,CLR,,0.00,WeatherDisplay:10.37,2013-12-17 00:53:00,
2013-12-16 18:58:00,44.2,38.8,30.26,WNW,292,0.0,0.0,81,0.00,CLR,,0.00,WeatherDisplay:10.37,2013-12-17 00:58:00,
2013-12-16 19:03:00,43.7,38.3,30.26,WNW,292,0.0,0.0,81,0.00,CLR,,0.00,WeatherDisplay:10.37,2013-12-17 01:03:00,
2013-12-16 19:08:00,43.5,38.1,30.26,WNW,292,0.0,0.0,81,0.00,CLR,,0.00,WeatherDisplay:10.37,2013-12-17 01:08:00,
2013-12-16 19:13:00,43.3,37.9,30.26,WNW,292,0.0,0.0,81,0.00,CLR,,0.00,WeatherDisplay:10.37,2013-12-17 01:13:00,
2013-12-16 19:18:00,43.0,37.9,30.26,WNW,292,0.0,0.0,82,0.00,CLR,,0.00,WeatherDisplay:10.37,2013-12-17 01:18:00,
2013-12-16 19:23:00,42.6,37.5,30.26,WNW,292,0.0,0.0,82,0.00,CLR,,0.00,WeatherDisplay:10.37,2013-12-17 01:23:00,
2013-12-16 19:25:00,42.6,37.5,30.26,WNW,292,0.0,0.0,82,0.00,CLR,,0.00,WeatherDisplay:10.37,2013-12-17 01:25:00,
2013-12-16 19:30:00,42.4,37.3,30.27,WNW,292,0.0,0.0,82,0.00,CLR,,0.00,WeatherDisplay:10.37,2013-12-17 01:30:00,
2013-12-16 19:35:00,42.1,37.3,30.27,WNW,292,0.0,0.0,83,0.00,CLR,,0.00,WeatherDisplay:10.37,2013-12-17 01:35:00,
2013-12-16 19:40:00,41.9,37.1,30.27,WNW,292,0.0,0.0,83,0.00,CLR,,0.00,WeatherDisplay:10.37,2013-12-17 01:40:00,
2013-12-16 19:45:00,41.7,36.9,30.27,WNW,292,0.0,0.0,83,0.00,CLR,,0.00,WeatherDisplay:10.37,2013-12-17 01:45:00,
2013-12-16 19:50:00,41.5,36.8,30.27,WNW,292,0.0,0.0,83,0.00,CLR,,0.00,WeatherDisplay:10.37,2013-12-17 01:50:00,
2013-12-16 19:55:00,41.5,36.8,30.27,WNW,292,0.0,0.0,83,0.00,CLR,,0.00,WeatherDisplay:10.37,2013-12-17 01:55:00,
2013-12-16 20:00:00,41.4,36.6,30.27,WNW,292,0.0,0.0,83,0.00,CLR,,0.00,WeatherDisplay:10.37,2013-12-17 02:00:00,
2013-12-16 20:05:00,41.4,36.6,30.27,WNW,292,0.0,0.0,83,0.00,CLR,,0.00,WeatherDisplay:10.37,2013-12-17 02:05:00,
2013-12-16 20:10:00,41.2,36.4,30.27,WNW,292,0.0,0.0,83,0.00,CLR,,0.00,WeatherDisplay:10.37,2013-12-17 02:10:00,
2013-12-16 20:15:00,41.0,36.2,30.28,WNW,292,0.0,0.0,83,0.00,CLR,,0.00,WeatherDisplay:10.37,2013-12-17 02:15:00,
2013-12-16 20:20:00,40.8,36.1,30.28,WNW,292,0.0,0.0,83,0.00,CLR,,0.00,WeatherDisplay:10.37,2013-12-17 02:20:00,
2013-12-16 20:25:00,40.6,36.2,30.28,WNW,292,0.0,0.0,84,0.00,CLR,,0.00,WeatherDisplay:10.37,2013-12-17 02:25:00,
2013-12-16 20:30:00,40.3,35.8,30.28,WNW,292,0.0,0.0,84,0.00,CLR,,0.00,WeatherDisplay:10.37,2013-12-17 02:30:00,
2013-12-16 20:35:00,40.3,35.8,30.28,WNW,292,0.0,0.0,84,0.00,CLR,,0.00,WeatherDisplay:10.37,2013-12-17 02:35:00,
2013-12-16 20:40:00,39.9,35.5,30.28,WNW,292,0.0,0.0,84,0.00,CLR,,0.00,WeatherDisplay:10.37,2013-12-17 02:40:00,
2013-12-16 20:45:00,39.9,35.8,30.29,WNW,292,0.0,0.0,85,0.00,CLR,,0.00,WeatherDisplay:10.37,2013-12-17 02:45:00,
2013-12-16 20:50:00,39.7,35.6,30.28,WNW,292,0.0,0.0,85,0.00,CLR,,0.00,WeatherDisplay:10.37,2013-12-17 02:50:00,
2013-12-16 20:55:00,39.6,35.4,30.28,WNW,292,0.0,0.0,85,0.00,CLR,,0.00,WeatherDisplay:10.37,2013-12-17 02:55:00,
2013-12-16 21:00:00,39.4,35.2,30.28,WNW,292,0.0,0.0,85,0.00,CLR,,0.00,WeatherDisplay:10.37,2013-12-17 03:00:00,
2013-12-16 21:05:00,39.4,35.2,30.29,WNW,292,0.0,0.0,85,0.00,CLR,,0.00,WeatherDisplay:10.37,2013-12-17 03:05:00,
2013-12-16 21:10:00,39.4,35.2,30.29,WNW,292,0.0,0.0,85,0.00,CLR,,0.00,WeatherDisplay:10.37,2013-12-17 03:10:00,
2013-12-16 21:15:00,39.4,35.2,30.29,WNW,292,0.0,0.0,85,0.00,CLR,,0.00,WeatherDisplay:10.37,2013-12-17 03:15:00,
2013-12-16 21:20:00,39.2,35.4,30.29,WNW,292,0.0,0.0,86,0.00,CLR,,0.00,WeatherDisplay:10.37,2013-12-17 03:20:00,
2013-12-16 21:25:00,39.0,35.2,30.29,WNW,292,0.0,0.0,86,0.00,CLR,,0.00,WeatherDisplay:10.37,2013-12-17 03:25:00,
2013-12-16 21:30:00,39.0,35.2,30.29,WNW,292,0.0,0.0,86,0.00,CLR,,0.00,WeatherDisplay:10.37,2013-12-17 03:30:00,
2013-12-16 21:35:00,39.0,35.2,30.29,WNW,292,0.0,0.0,86,0.00,CLR,,0.00,WeatherDisplay:10.37,2013-12-17 03:35:00,
2013-12-16 21:40:00,39.0,35.2,30.29,WNW,292,0.0,0.0,86,0.00,CLR,,0.00,WeatherDisplay:10.37,2013-12-17 03:40:00,
2013-12-16 21:45:00,38.8,35.0,30.29,WNW,292,0.0,0.0,86,0.00,CLR,,0.00,WeatherDisplay:10.37,2013-12-17 03:45:00,
2013-12-16 21:50:00,38.8,35.0,30.29,WNW,292,0.0,0.0,86,0.00,CLR,,0.00,WeatherDisplay:10.37,2013-12-17 03:50:00,
2013-12-16 21:55:00,38.5,34.7,30.29,WNW,292,0.0,0.0,86,0.00,CLR,,0.00,WeatherDisplay:10.37,2013-12-17 03:55:00,
2013-12-16 22:00:00,38.5,34.7,30.29,WNW,292,0.0,0.0,86,0.00,CLR,,0.00,WeatherDisplay:10.37,2013-12-17 04:00:00,
2013-12-16 22:05:00,38.3,34.5,30.29,WNW,292,0.0,0.0,86,0.00,CLR,,0.00,WeatherDisplay:10.37,2013-12-17 04:05:00,
2013-12-16 22:10:00,38.3,34.5,30.30,WNW,292,0.0,0.0,86,0.00,CLR,,0.00,WeatherDisplay:10.37,2013-12-17 04:10:00,
2013-12-16 22:15:00,38.3,34.5,30.30,WNW,292,0.0,0.0,86,0.00,CLR,,0.00,WeatherDisplay:10.37,2013-12-17 04:15:00,
2013-12-16 22:20:00,38.1,34.3,30.30,WNW,292,0.0,0.0,86,0.00,CLR,,0.00,WeatherDisplay:10.37,2013-12-17 04:20:00,
2013-12-16 22:25:00,38.1,34.3,30.30,WNW,292,0.0,0.0,86,0.00,CLR,,0.00,WeatherDisplay:10.37,2013-12-17 04:25:00,
2013-12-16 22:30:00,38.1,34.6,30.30,WNW,292,0.0,0.0,87,0.00,CLR,,0.00,WeatherDisplay:10.37,2013-12-17 04:30:00,
2013-12-16 22:35:00,38.1,34.6,30.29,WNW,292,0.0,0.0,87,0.00,CLR,,0.00,WeatherDisplay:10.37,2013-12-17 04:35:00,
2013-12-16 22:40:00,38.1,34.6,30.30,WNW,292,0.0,0.0,87,0.00,CLR,,0.00,WeatherDisplay:10.37,2013-12-17 04:40:00,
2013-12-16 22:45:00,38.1,34.6,30.30,WNW,292,0.0,0.0,87,0.00,CLR,,0.00,WeatherDisplay:10.37,2013-12-17 04:45:00,
2013-12-16 22:50:00,38.1,34.6,30.30,WNW,292,0.0,0.0,87,0.00,CLR,,0.00,WeatherDisplay:10.37,2013-12-17 04:50:00,
2013-12-16 22:55:00,37.9,34.4,30.29,WNW,292,0.0,0.0,87,0.00,CLR,,0.00,WeatherDisplay:10.37,2013-12-17 04:55:00,
2013-12-16 23:00:00,37.9,34.4,30.30,WNW,292,0.0,0.0,87,0.00,CLR,,0.00,WeatherDisplay:10.37,2013-12-17 05:00:00,
2013-12-16 23:01:00,37.9,34.4,30.30,WNW,292,0.0,0.0,87,0.00,CLR,,0.00,WeatherDisplay:10.37,2013-12-17 05:01:00,
2013-12-16 23:02:00,37.9,34.4,30.30,WNW,292,0.0,0.0,87,0.00,CLR,,0.00,WeatherDisplay:10.37,2013-12-17 05:02:00,
2013-12-16 23:03:00,37.9,34.4,30.30,WNW,292,0.0,0.0,87,0.00,CLR,,0.00,WeatherDisplay:10.37,2013-12-17 05:03:00,
2013-12-16 23:05:00,37.9,34.4,30.30,WNW,292,0.0,0.0,87,0.00,CLR,,0.00,WeatherDisplay:10.37,2013-12-17 05:05:00,
2013-12-16 23:10:00,37.9,34.4,30.30,WNW,292,0.0,0.0,87,0.00,CLR,,0.00,WeatherDisplay:10.37,2013-12-17 05:10:00,
2013-12-16 23:15:00,37.8,34.2,30.29,WNW,292,0.0,0.0,87,0.00,CLR,,0.00,WeatherDisplay:10.37,2013-12-17 05:15:00,
2013-12-16 23:20:00,37.6,34.1,30.29,WNW,292,0.0,0.0,87,0.00,CLR,,0.00,WeatherDisplay:10.37,2013-12-17 05:20:00,
2013-12-16 23:25:00,37.6,34.1,30.29,WNW,292,0.0,0.0,87,0.00,CLR,,0.00,WeatherDisplay:10.37,2013-12-17 05:25:00,
2013-12-16 23:30:00,37.6,34.1,30.29,WNW,292,0.0,0.0,87,0.00,CLR,,0.00,WeatherDisplay:10.37,2013-12-17 05:30:00,
2013-12-16 23:35:00,37.4,33.9,30.29,WNW,292,0.0,0.0,87,0.00,CLR,,0.00,WeatherDisplay:10.37,2013-12-17 05:35:00,
2013-12-16 23:40:00,37.2,33.7,30.29,WNW,292,0.0,0.0,87,0.00,CLR,,0.00,WeatherDisplay:10.37,2013-12-17 05:40:00,
2013-12-16 23:45:00,37.2,33.7,30.29,WNW,292,0.0,0.0,87,0.00,CLR,,0.00,WeatherDisplay:10.37,2013-12-17 05:45:00,
2013-12-16 23:50:00,37.0,33.5,30.29,WNW,292,0.0,0.0,87,0.00,CLR,,0.00,WeatherDisplay:10.37,2013-12-17 05:50:00,
2013-12-16 23:55:00,37.0,33.5,30.29,WNW,292,0.0,0.0,87,0.00,CLR,,0.00,WeatherDisplay:10.37,2013-12-17 05:55:00,